sensor_id;sensor_type;location;lat;lon;timestamp;temperature;humidity
12557;DHT22;6344;49.932;8.308;2023-01-26T00:02:12;1.20;99.90
12557;DHT22;6344;49.932;8.308;2023-01-26T00:04:40;1.20;99.90
12557;DHT22;6344;49.932;8.308;2023-01-26T00:07:07;1.00;99.90
12557;DHT22;6344;49.932;8.308;2023-01-26T00:09:33;1.00;99.90
12557;DHT22;6344;49.932;8.308;2023-01-26T00:12:00;1.00;99.90
12557;DHT22;6344;49.932;8.308;2023-01-26T00:14:27;1.00;99.90
12557;DHT22;6344;49.932;8.308;2023-01-26T00:17:14;1.10;99.90
12557;DHT22;6344;49.932;8.308;2023-01-26T00:19:42;1.00;99.90
12557;DHT22;6344;49.932;8.308;2023-01-26T00:22:09;1.00;99.90
12557;DHT22;6344;49.932;8.308;2023-01-26T00:24:35;0.90;99.90
12557;DHT22;6344;49.932;8.308;2023-01-26T00:27:02;1.10;99.90
12557;DHT22;6344;49.932;8.308;2023-01-26T00:29:29;1.10;99.90
12557;DHT22;6344;49.932;8.308;2023-01-26T00:31:55;0.90;99.90
12557;DHT22;6344;49.932;8.308;2023-01-26T00:34:22;0.90;99.90
12557;DHT22;6344;49.932;8.308;2023-01-26T00:36:50;0.90;99.90
12557;DHT22;6344;49.932;8.308;2023-01-26T00:39:16;0.90;99.90
12557;DHT22;6344;49.932;8.308;2023-01-26T00:41:43;0.90;99.90
12557;DHT22;6344;49.932;8.308;2023-01-26T00:44:27;0.80;99.90
12557;DHT22;6344;49.932;8.308;2023-01-26T00:46:54;0.80;99.90
12557;DHT22;6344;49.932;8.308;2023-01-26T00:49:21;0.90;99.90
12557;DHT22;6344;49.932;8.308;2023-01-26T00:51:47;0.70;99.90
12557;DHT22;6344;49.932;8.308;2023-01-26T00:54:15;0.90;99.90
12557;DHT22;6344;49.932;8.308;2023-01-26T00:56:42;0.70;99.90
12557;DHT22;6344;49.932;8.308;2023-01-26T00:59:08;0.60;99.90
12557;DHT22;6344;49.932;8.308;2023-01-26T01:01:35;0.70;99.90
12557;DHT22;6344;49.932;8.308;2023-01-26T01:04:02;0.70;99.90
12557;DHT22;6344;49.932;8.308;2023-01-26T01:06:28;0.60;99.90
12557;DHT22;6344;49.932;8.308;2023-01-26T01:08:55;0.70;99.90
12557;DHT22;6344;49.932;8.308;2023-01-26T01:11:23;0.70;99.90
12557;DHT22;6344;49.932;8.308;2023-01-26T01:13:50;0.80;99.90
12557;DHT22;6344;49.932;8.308;2023-01-26T01:16:16;0.80;99.90
12557;DHT22;6344;49.932;8.308;2023-01-26T01:18:43;0.70;99.90
12557;DHT22;6344;49.932;8.308;2023-01-26T01:21:12;0.70;99.90
12557;DHT22;6344;49.932;8.308;2023-01-26T01:23:40;0.70;99.90
12557;DHT22;6344;49.932;8.308;2023-01-26T01:26:09;0.70;99.90
12557;DHT22;6344;49.932;8.308;2023-01-26T01:28:38;0.60;99.90
12557;DHT22;6344;49.932;8.308;2023-01-26T01:31:05;0.50;99.90
12557;DHT22;6344;49.932;8.308;2023-01-26T01:33:31;0.40;99.90
12557;DHT22;6344;49.932;8.308;2023-01-26T01:35:59;0.40;99.90
12557;DHT22;6344;49.932;8.308;2023-01-26T01:38:27;0.40;99.90
12557;DHT22;6344;49.932;8.308;2023-01-26T01:40:54;0.40;99.90
12557;DHT22;6344;49.932;8.308;2023-01-26T01:43:21;0.40;99.90
12557;DHT22;6344;49.932;8.308;2023-01-26T01:45:51;0.40;99.90
12557;DHT22;6344;49.932;8.308;2023-01-26T01:48:21;0.30;99.90
12557;DHT22;6344;49.932;8.308;2023-01-26T01:50:52;0.30;99.90
12557;DHT22;6344;49.932;8.308;2023-01-26T01:53:22;0.10;99.90
12557;DHT22;6344;49.932;8.308;2023-01-26T01:55:54;0.10;99.90
12557;DHT22;6344;49.932;8.308;2023-01-26T01:58:22;0.10;99.90
12557;DHT22;6344;49.932;8.308;2023-01-26T02:00:50;0.10;99.90
12557;DHT22;6344;49.932;8.308;2023-01-26T02:03:17;0.20;99.90
12557;DHT22;6344;49.932;8.308;2023-01-26T02:05:52;0.10;99.90
12557;DHT22;6344;49.932;8.308;2023-01-26T02:08:21;0.10;99.90
12557;DHT22;6344;49.932;8.308;2023-01-26T02:10:52;0.00;99.90
12557;DHT22;6344;49.932;8.308;2023-01-26T02:13:21;-0.10;99.90
12557;DHT22;6344;49.932;8.308;2023-01-26T02:15:51;-0.10;99.90
12557;DHT22;6344;49.932;8.308;2023-01-26T02:18:17;-0.10;99.90
12557;DHT22;6344;49.932;8.308;2023-01-26T02:20:46;-0.10;99.90
12557;DHT22;6344;49.932;8.308;2023-01-26T02:23:22;-0.30;99.90
12557;DHT22;6344;49.932;8.308;2023-01-26T02:26:03;-0.30;99.90
12557;DHT22;6344;49.932;8.308;2023-01-26T02:28:30;-0.20;99.90
12557;DHT22;6344;49.932;8.308;2023-01-26T02:30:58;-0.30;99.90
12557;DHT22;6344;49.932;8.308;2023-01-26T02:33:27;-0.30;99.90
12557;DHT22;6344;49.932;8.308;2023-01-26T02:35:54;-0.30;99.90
12557;DHT22;6344;49.932;8.308;2023-01-26T02:38:22;-0.30;99.90
12557;DHT22;6344;49.932;8.308;2023-01-26T02:40:53;-0.30;99.90
12557;DHT22;6344;49.932;8.308;2023-01-26T02:43:22;-0.30;99.90
12557;DHT22;6344;49.932;8.308;2023-01-26T02:45:49;-0.30;99.90
12557;DHT22;6344;49.932;8.308;2023-01-26T02:48:16;-0.20;99.90
12557;DHT22;6344;49.932;8.308;2023-01-26T02:51:03;-0.20;99.90
12557;DHT22;6344;49.932;8.308;2023-01-26T02:53:30;-0.20;99.90
12557;DHT22;6344;49.932;8.308;2023-01-26T02:55:57;-0.20;99.90
12557;DHT22;6344;49.932;8.308;2023-01-26T02:58:24;-0.10;99.90
12557;DHT22;6344;49.932;8.308;2023-01-26T03:00:51;0.00;99.90
12557;DHT22;6344;49.932;8.308;2023-01-26T03:03:19;0.00;99.90
12557;DHT22;6344;49.932;8.308;2023-01-26T03:05:48;0.00;99.90
12557;DHT22;6344;49.932;8.308;2023-01-26T03:08:14;-0.10;99.90
12557;DHT22;6344;49.932;8.308;2023-01-26T03:10:41;-0.10;99.90
12557;DHT22;6344;49.932;8.308;2023-01-26T03:13:08;-0.20;99.90
12557;DHT22;6344;49.932;8.308;2023-01-26T03:15:36;-0.20;99.90
12557;DHT22;6344;49.932;8.308;2023-01-26T03:18:17;-0.20;99.90
12557;DHT22;6344;49.932;8.308;2023-01-26T03:21:04;-0.30;99.90
12557;DHT22;6344;49.932;8.308;2023-01-26T03:23:48;-0.20;99.90
12557;DHT22;6344;49.932;8.308;2023-01-26T03:26:33;-0.30;99.90
12557;DHT22;6344;49.932;8.308;2023-01-26T03:29:17;-0.30;99.90
12557;DHT22;6344;49.932;8.308;2023-01-26T03:31:45;-0.20;99.90
12557;DHT22;6344;49.932;8.308;2023-01-26T03:34:12;-0.30;99.90
12557;DHT22;6344;49.932;8.308;2023-01-26T03:36:39;-0.20;99.90
12557;DHT22;6344;49.932;8.308;2023-01-26T03:39:05;-0.10;99.90
12557;DHT22;6344;49.932;8.308;2023-01-26T03:41:32;-0.10;99.90
12557;DHT22;6344;49.932;8.308;2023-01-26T03:44:16;-0.10;99.90
12557;DHT22;6344;49.932;8.308;2023-01-26T03:47:02;0.00;99.90
12557;DHT22;6344;49.932;8.308;2023-01-26T03:49:46;-0.10;99.90
12557;DHT22;6344;49.932;8.308;2023-01-26T03:52:30;-0.10;99.90
12557;DHT22;6344;49.932;8.308;2023-01-26T03:55:15;-0.20;99.90
12557;DHT22;6344;49.932;8.308;2023-01-26T03:57:59;-0.20;99.90
12557;DHT22;6344;49.932;8.308;2023-01-26T04:00:25;-0.10;99.90
12557;DHT22;6344;49.932;8.308;2023-01-26T04:02:53;-0.30;99.90
12557;DHT22;6344;49.932;8.308;2023-01-26T04:05:38;-0.20;99.90
12557;DHT22;6344;49.932;8.308;2023-01-26T04:08:22;-0.20;99.90
12557;DHT22;6344;49.932;8.308;2023-01-26T04:10:49;-0.20;99.90
12557;DHT22;6344;49.932;8.308;2023-01-26T04:13:16;-0.20;99.90
12557;DHT22;6344;49.932;8.308;2023-01-26T04:16:01;-0.20;99.90
12557;DHT22;6344;49.932;8.308;2023-01-26T04:18:46;-0.20;99.90
12557;DHT22;6344;49.932;8.308;2023-01-26T04:21:30;-0.20;99.90
12557;DHT22;6344;49.932;8.308;2023-01-26T04:23:59;-0.30;99.90
12557;DHT22;6344;49.932;8.308;2023-01-26T04:26:27;-0.30;99.90
12557;DHT22;6344;49.932;8.308;2023-01-26T04:28:59;-0.20;99.90
12557;DHT22;6344;49.932;8.308;2023-01-26T04:31:26;-0.30;99.90
12557;DHT22;6344;49.932;8.308;2023-01-26T04:33:54;-0.10;99.90
12557;DHT22;6344;49.932;8.308;2023-01-26T04:36:21;-0.10;99.90
12557;DHT22;6344;49.932;8.308;2023-01-26T04:38:48;0.10;99.90
12557;DHT22;6344;49.932;8.308;2023-01-26T04:41:15;0.00;99.90
12557;DHT22;6344;49.932;8.308;2023-01-26T04:43:42;-0.10;99.90
12557;DHT22;6344;49.932;8.308;2023-01-26T04:46:08;0.10;99.90
12557;DHT22;6344;49.932;8.308;2023-01-26T04:48:35;0.10;99.90
12557;DHT22;6344;49.932;8.308;2023-01-26T04:51:05;0.20;99.90
12557;DHT22;6344;49.932;8.308;2023-01-26T04:53:32;0.10;99.90
12557;DHT22;6344;49.932;8.308;2023-01-26T04:55:59;0.00;99.90
12557;DHT22;6344;49.932;8.308;2023-01-26T04:58:25;-0.10;99.90
12557;DHT22;6344;49.932;8.308;2023-01-26T05:00:53;-0.10;99.90
12557;DHT22;6344;49.932;8.308;2023-01-26T05:03:20;0.00;99.90
12557;DHT22;6344;49.932;8.308;2023-01-26T05:05:48;0.10;99.90
12557;DHT22;6344;49.932;8.308;2023-01-26T05:08:17;0.00;99.90
12557;DHT22;6344;49.932;8.308;2023-01-26T05:10:44;0.00;99.90
12557;DHT22;6344;49.932;8.308;2023-01-26T05:13:12;0.00;99.90
12557;DHT22;6344;49.932;8.308;2023-01-26T05:15:39;0.10;99.90
12557;DHT22;6344;49.932;8.308;2023-01-26T05:18:06;0.00;99.90
12557;DHT22;6344;49.932;8.308;2023-01-26T05:20:32;0.10;99.90
12557;DHT22;6344;49.932;8.308;2023-01-26T05:22:59;0.20;99.90
12557;DHT22;6344;49.932;8.308;2023-01-26T05:25:27;0.40;99.90
12557;DHT22;6344;49.932;8.308;2023-01-26T05:27:54;0.40;99.90
12557;DHT22;6344;49.932;8.308;2023-01-26T05:30:20;0.40;99.90
12557;DHT22;6344;49.932;8.308;2023-01-26T05:32:47;0.30;99.90
12557;DHT22;6344;49.932;8.308;2023-01-26T05:35:14;0.40;99.90
12557;DHT22;6344;49.932;8.308;2023-01-26T05:37:41;0.20;99.90
12557;DHT22;6344;49.932;8.308;2023-01-26T05:40:09;0.20;99.90
12557;DHT22;6344;49.932;8.308;2023-01-26T05:42:37;0.30;99.90
12557;DHT22;6344;49.932;8.308;2023-01-26T05:45:05;0.30;99.90
12557;DHT22;6344;49.932;8.308;2023-01-26T05:47:31;0.20;99.90
12557;DHT22;6344;49.932;8.308;2023-01-26T05:49:58;0.20;99.90
12557;DHT22;6344;49.932;8.308;2023-01-26T05:52:25;0.20;99.90
12557;DHT22;6344;49.932;8.308;2023-01-26T05:54:51;0.20;99.90
12557;DHT22;6344;49.932;8.308;2023-01-26T05:57:18;0.20;99.90
12557;DHT22;6344;49.932;8.308;2023-01-26T05:59:46;0.00;99.90
12557;DHT22;6344;49.932;8.308;2023-01-26T06:02:13;0.10;99.90
12557;DHT22;6344;49.932;8.308;2023-01-26T06:04:40;0.00;99.90
12557;DHT22;6344;49.932;8.308;2023-01-26T06:07:06;0.10;99.90
12557;DHT22;6344;49.932;8.308;2023-01-26T06:09:33;0.10;99.90
12557;DHT22;6344;49.932;8.308;2023-01-26T06:12:00;0.10;99.90
12557;DHT22;6344;49.932;8.308;2023-01-26T06:14:26;0.20;99.90
12557;DHT22;6344;49.932;8.308;2023-01-26T06:16:54;0.10;99.90
12557;DHT22;6344;49.932;8.308;2023-01-26T06:19:21;0.00;99.90
12557;DHT22;6344;49.932;8.308;2023-01-26T06:21:48;0.00;99.90
12557;DHT22;6344;49.932;8.308;2023-01-26T06:24:14;0.00;99.90
12557;DHT22;6344;49.932;8.308;2023-01-26T06:26:41;-0.10;99.90
12557;DHT22;6344;49.932;8.308;2023-01-26T06:29:08;0.00;99.90
12557;DHT22;6344;49.932;8.308;2023-01-26T06:31:35;0.00;99.90
12557;DHT22;6344;49.932;8.308;2023-01-26T06:34:03;0.10;99.90
12557;DHT22;6344;49.932;8.308;2023-01-26T06:36:30;0.10;99.90
12557;DHT22;6344;49.932;8.308;2023-01-26T06:38:57;-0.10;99.90
12557;DHT22;6344;49.932;8.308;2023-01-26T06:41:24;-0.10;99.90
12557;DHT22;6344;49.932;8.308;2023-01-26T06:43:51;-0.10;99.90
12557;DHT22;6344;49.932;8.308;2023-01-26T06:46:18;-0.10;99.90
12557;DHT22;6344;49.932;8.308;2023-01-26T06:48:45;0.00;99.90
12557;DHT22;6344;49.932;8.308;2023-01-26T06:51:47;0.00;99.90
12557;DHT22;6344;49.932;8.308;2023-01-26T06:54:17;-0.10;99.90
12557;DHT22;6344;49.932;8.308;2023-01-26T06:56:44;-0.10;99.90
12557;DHT22;6344;49.932;8.308;2023-01-26T06:59:11;0.00;99.90
12557;DHT22;6344;49.932;8.308;2023-01-26T07:01:40;0.00;99.90
12557;DHT22;6344;49.932;8.308;2023-01-26T07:04:08;0.10;99.90
12557;DHT22;6344;49.932;8.308;2023-01-26T07:06:34;0.10;99.90
12557;DHT22;6344;49.932;8.308;2023-01-26T07:09:02;0.10;99.90
12557;DHT22;6344;49.932;8.308;2023-01-26T07:11:29;0.00;99.90
12557;DHT22;6344;49.932;8.308;2023-01-26T07:13:57;0.00;99.90
12557;DHT22;6344;49.932;8.308;2023-01-26T07:16:24;0.10;99.90
12557;DHT22;6344;49.932;8.308;2023-01-26T07:18:52;0.20;99.90
12557;DHT22;6344;49.932;8.308;2023-01-26T07:21:18;0.20;99.90
12557;DHT22;6344;49.932;8.308;2023-01-26T07:23:47;0.10;99.90
12557;DHT22;6344;49.932;8.308;2023-01-26T07:26:17;0.00;99.90
12557;DHT22;6344;49.932;8.308;2023-01-26T07:28:43;-0.10;99.90
12557;DHT22;6344;49.932;8.308;2023-01-26T07:31:11;-0.10;99.90
12557;DHT22;6344;49.932;8.308;2023-01-26T07:33:38;-0.10;99.90
12557;DHT22;6344;49.932;8.308;2023-01-26T07:36:05;-0.20;99.90
12557;DHT22;6344;49.932;8.308;2023-01-26T07:38:32;-0.20;99.90
12557;DHT22;6344;49.932;8.308;2023-01-26T07:41:04;-0.20;99.90
12557;DHT22;6344;49.932;8.308;2023-01-26T07:43:33;-0.20;99.90
12557;DHT22;6344;49.932;8.308;2023-01-26T07:46:00;-0.20;99.90
12557;DHT22;6344;49.932;8.308;2023-01-26T07:48:26;-0.20;99.90
12557;DHT22;6344;49.932;8.308;2023-01-26T07:50:57;-0.10;99.90
12557;DHT22;6344;49.932;8.308;2023-01-26T07:53:24;-0.20;99.90
12557;DHT22;6344;49.932;8.308;2023-01-26T07:55:54;-0.20;99.90
12557;DHT22;6344;49.932;8.308;2023-01-26T07:58:20;-0.30;99.90
12557;DHT22;6344;49.932;8.308;2023-01-26T08:00:48;-0.40;99.90
12557;DHT22;6344;49.932;8.308;2023-01-26T08:03:15;-0.50;99.90
12557;DHT22;6344;49.932;8.308;2023-01-26T08:05:42;-0.40;99.90
12557;DHT22;6344;49.932;8.308;2023-01-26T08:08:08;-0.40;99.90
12557;DHT22;6344;49.932;8.308;2023-01-26T08:10:35;-0.30;99.90
12557;DHT22;6344;49.932;8.308;2023-01-26T08:13:02;-0.30;99.90
12557;DHT22;6344;49.932;8.308;2023-01-26T08:15:29;-0.20;99.90
12557;DHT22;6344;49.932;8.308;2023-01-26T08:17:57;-0.20;99.90
12557;DHT22;6344;49.932;8.308;2023-01-26T08:20:25;-0.10;99.90
12557;DHT22;6344;49.932;8.308;2023-01-26T08:22:52;-0.10;99.90
12557;DHT22;6344;49.932;8.308;2023-01-26T08:25:19;-0.20;99.90
12557;DHT22;6344;49.932;8.308;2023-01-26T08:27:46;-0.20;99.90
12557;DHT22;6344;49.932;8.308;2023-01-26T08:30:13;-0.10;99.90
12557;DHT22;6344;49.932;8.308;2023-01-26T08:32:40;-0.10;99.90
12557;DHT22;6344;49.932;8.308;2023-01-26T08:35:09;0.00;99.90
12557;DHT22;6344;49.932;8.308;2023-01-26T08:37:35;0.00;99.90
12557;DHT22;6344;49.932;8.308;2023-01-26T08:40:02;0.00;99.90
12557;DHT22;6344;49.932;8.308;2023-01-26T08:42:29;0.00;99.90
12557;DHT22;6344;49.932;8.308;2023-01-26T08:44:55;0.00;99.90
12557;DHT22;6344;49.932;8.308;2023-01-26T08:47:22;-0.10;99.90
12557;DHT22;6344;49.932;8.308;2023-01-26T08:49:48;-0.10;99.90
12557;DHT22;6344;49.932;8.308;2023-01-26T08:52:16;-0.10;99.90
12557;DHT22;6344;49.932;8.308;2023-01-26T08:54:43;-0.10;99.90
12557;DHT22;6344;49.932;8.308;2023-01-26T08:57:10;-0.20;99.90
12557;DHT22;6344;49.932;8.308;2023-01-26T08:59:36;-0.20;99.90
12557;DHT22;6344;49.932;8.308;2023-01-26T09:02:03;-0.10;99.90
12557;DHT22;6344;49.932;8.308;2023-01-26T09:04:30;-0.10;99.90
12557;DHT22;6344;49.932;8.308;2023-01-26T09:06:56;0.00;99.90
12557;DHT22;6344;49.932;8.308;2023-01-26T09:09:24;0.10;99.90
12557;DHT22;6344;49.932;8.308;2023-01-26T09:11:54;0.00;99.90
12557;DHT22;6344;49.932;8.308;2023-01-26T09:14:20;0.20;99.90
12557;DHT22;6344;49.932;8.308;2023-01-26T09:16:48;0.20;99.90
12557;DHT22;6344;49.932;8.308;2023-01-26T09:19:15;0.10;99.90
12557;DHT22;6344;49.932;8.308;2023-01-26T09:21:41;0.20;99.90
12557;DHT22;6344;49.932;8.308;2023-01-26T09:24:08;0.20;99.90
12557;DHT22;6344;49.932;8.308;2023-01-26T09:26:36;0.20;99.90
12557;DHT22;6344;49.932;8.308;2023-01-26T09:29:03;0.10;99.90
12557;DHT22;6344;49.932;8.308;2023-01-26T09:31:30;0.10;99.90
12557;DHT22;6344;49.932;8.308;2023-01-26T09:33:56;0.10;99.90
12557;DHT22;6344;49.932;8.308;2023-01-26T09:36:23;0.10;99.90
12557;DHT22;6344;49.932;8.308;2023-01-26T09:38:49;-0.10;99.90
12557;DHT22;6344;49.932;8.308;2023-01-26T09:41:29;0.00;99.90
12557;DHT22;6344;49.932;8.308;2023-01-26T09:44:04;-0.10;99.90
12557;DHT22;6344;49.932;8.308;2023-01-26T09:46:42;-0.20;99.90
12557;DHT22;6344;49.932;8.308;2023-01-26T09:49:14;-0.10;99.90
12557;DHT22;6344;49.932;8.308;2023-01-26T09:51:46;-0.10;99.90
12557;DHT22;6344;49.932;8.308;2023-01-26T09:54:21;-0.10;99.90
12557;DHT22;6344;49.932;8.308;2023-01-26T09:56:51;-0.10;99.90
12557;DHT22;6344;49.932;8.308;2023-01-26T09:59:26;-0.20;99.90
12557;DHT22;6344;49.932;8.308;2023-01-26T10:02:00;-0.10;99.90
12557;DHT22;6344;49.932;8.308;2023-01-26T10:04:31;-0.20;99.90
12557;DHT22;6344;49.932;8.308;2023-01-26T10:07:04;-0.20;99.90
12557;DHT22;6344;49.932;8.308;2023-01-26T10:09:34;-0.10;99.90
12557;DHT22;6344;49.932;8.308;2023-01-26T10:12:04;-0.10;99.90
12557;DHT22;6344;49.932;8.308;2023-01-26T10:14:36;-0.10;99.90
12557;DHT22;6344;49.932;8.308;2023-01-26T10:17:06;-0.10;99.90
12557;DHT22;6344;49.932;8.308;2023-01-26T10:19:41;0.00;99.90
12557;DHT22;6344;49.932;8.308;2023-01-26T10:22:12;0.00;99.90
12557;DHT22;6344;49.932;8.308;2023-01-26T10:24:42;-0.10;99.90
12557;DHT22;6344;49.932;8.308;2023-01-26T10:27:11;0.00;99.90
12557;DHT22;6344;49.932;8.308;2023-01-26T10:29:40;0.10;99.90
12557;DHT22;6344;49.932;8.308;2023-01-26T10:32:11;0.20;99.90
12557;DHT22;6344;49.932;8.308;2023-01-26T10:34:38;0.10;99.90
12557;DHT22;6344;49.932;8.308;2023-01-26T10:37:18;0.20;99.90
12557;DHT22;6344;49.932;8.308;2023-01-26T10:39:59;0.20;99.90
12557;DHT22;6344;49.932;8.308;2023-01-26T10:42:27;0.40;99.90
12557;DHT22;6344;49.932;8.308;2023-01-26T10:44:57;0.30;99.90
12557;DHT22;6344;49.932;8.308;2023-01-26T10:47:27;0.30;99.90
12557;DHT22;6344;49.932;8.308;2023-01-26T10:50:14;0.30;99.90
12557;DHT22;6344;49.932;8.308;2023-01-26T10:52:56;0.40;99.90
12557;DHT22;6344;49.932;8.308;2023-01-26T10:55:22;0.40;99.90
12557;DHT22;6344;49.932;8.308;2023-01-26T10:57:49;0.40;99.90
12557;DHT22;6344;49.932;8.308;2023-01-26T11:00:23;0.40;99.90
12557;DHT22;6344;49.932;8.308;2023-01-26T11:02:52;0.50;99.90
12557;DHT22;6344;49.932;8.308;2023-01-26T11:05:20;0.60;99.90
12557;DHT22;6344;49.932;8.308;2023-01-26T11:07:48;0.70;99.90
12557;DHT22;6344;49.932;8.308;2023-01-26T11:10:22;0.40;99.90
12557;DHT22;6344;49.932;8.308;2023-01-26T11:12:50;0.50;99.90
12557;DHT22;6344;49.932;8.308;2023-01-26T11:15:20;0.70;99.90
12557;DHT22;6344;49.932;8.308;2023-01-26T11:17:53;0.60;99.90
12557;DHT22;6344;49.932;8.308;2023-01-26T11:20:45;0.40;99.90
12557;DHT22;6344;49.932;8.308;2023-01-26T11:23:19;0.60;97.10
12557;DHT22;6344;49.932;8.308;2023-01-26T11:25:58;0.90;94.00
12557;DHT22;6344;49.932;8.308;2023-01-26T11:28:36;0.90;65.00
12557;DHT22;6344;49.932;8.308;2023-01-26T11:31:15;0.90;74.40
12557;DHT22;6344;49.932;8.308;2023-01-26T11:33:54;1.00;61.40
12557;DHT22;6344;49.932;8.308;2023-01-26T11:36:33;0.90;27.30
12557;DHT22;6344;49.932;8.308;2023-01-26T11:39:10;0.80;61.20
12557;DHT22;6344;49.932;8.308;2023-01-26T11:41:50;0.50;99.90
12557;DHT22;6344;49.932;8.308;2023-01-26T11:44:45;0.60;92.90
12557;DHT22;6344;49.932;8.308;2023-01-26T11:47:30;0.60;69.40
12557;DHT22;6344;49.932;8.308;2023-01-26T11:50:12;0.50;68.00
12557;DHT22;6344;49.932;8.308;2023-01-26T11:52:50;0.50;50.50
12557;DHT22;6344;49.932;8.308;2023-01-26T11:55:27;0.40;96.70
12557;DHT22;6344;49.932;8.308;2023-01-26T11:58:13;0.60;60.50
12557;DHT22;6344;49.932;8.308;2023-01-26T12:00:47;0.70;29.30
12557;DHT22;6344;49.932;8.308;2023-01-26T12:03:22;0.90;11.90
12557;DHT22;6344;49.932;8.308;2023-01-26T12:05:53;1.10;9.00
12557;DHT22;6344;49.932;8.308;2023-01-26T12:08:24;1.50;3.80
12557;DHT22;6344;49.932;8.308;2023-01-26T12:10:58;1.80;1.00
12557;DHT22;6344;49.932;8.308;2023-01-26T12:14:00;1.80;1.00
12557;DHT22;6344;49.932;8.308;2023-01-26T12:16:35;1.40;1.00
12557;DHT22;6344;49.932;8.308;2023-01-26T12:19:11;1.00;1.70
12557;DHT22;6344;49.932;8.308;2023-01-26T12:21:42;1.20;1.00
12557;DHT22;6344;49.932;8.308;2023-01-26T12:24:13;1.10;1.00
12557;DHT22;6344;49.932;8.308;2023-01-26T12:26:46;1.30;1.00
12557;DHT22;6344;49.932;8.308;2023-01-26T12:29:17;1.70;1.00
12557;DHT22;6344;49.932;8.308;2023-01-26T12:31:47;2.40;1.00
12557;DHT22;6344;49.932;8.308;2023-01-26T12:34:17;2.90;1.00
12557;DHT22;6344;49.932;8.308;2023-01-26T12:36:51;3.10;1.00
12557;DHT22;6344;49.932;8.308;2023-01-26T12:39:25;2.60;1.00
12557;DHT22;6344;49.932;8.308;2023-01-26T12:42:02;2.50;1.00
12557;DHT22;6344;49.932;8.308;2023-01-26T12:44:37;2.10;1.00
12557;DHT22;6344;49.932;8.308;2023-01-26T12:47:10;2.00;1.00
12557;DHT22;6344;49.932;8.308;2023-01-26T12:49:44;1.90;1.00
12557;DHT22;6344;49.932;8.308;2023-01-26T12:52:17;1.90;1.00
12557;DHT22;6344;49.932;8.308;2023-01-26T12:54:51;1.80;1.00
12557;DHT22;6344;49.932;8.308;2023-01-26T12:57:21;2.00;1.00
12557;DHT22;6344;49.932;8.308;2023-01-26T12:59:50;1.70;1.00
12557;DHT22;6344;49.932;8.308;2023-01-26T13:02:28;1.80;1.00
12557;DHT22;6344;49.932;8.308;2023-01-26T13:04:58;1.60;1.00
12557;DHT22;6344;49.932;8.308;2023-01-26T13:07:28;1.60;1.00
12557;DHT22;6344;49.932;8.308;2023-01-26T13:10:25;1.70;1.00
12557;DHT22;6344;49.932;8.308;2023-01-26T13:12:54;1.60;1.00
12557;DHT22;6344;49.932;8.308;2023-01-26T13:15:24;1.50;1.00
12557;DHT22;6344;49.932;8.308;2023-01-26T13:17:53;1.60;1.00
12557;DHT22;6344;49.932;8.308;2023-01-26T13:20:49;1.60;1.00
12557;DHT22;6344;49.932;8.308;2023-01-26T13:23:49;1.70;1.00
12557;DHT22;6344;49.932;8.308;2023-01-26T13:29:27;1.40;1.00
12557;DHT22;6344;49.932;8.308;2023-01-26T13:31:57;1.50;1.00
12557;DHT22;6344;49.932;8.308;2023-01-26T13:34:26;1.50;1.00
12557;DHT22;6344;49.932;8.308;2023-01-26T13:36:57;1.60;1.00
12557;DHT22;6344;49.932;8.308;2023-01-26T13:39:29;1.80;1.00
12557;DHT22;6344;49.932;8.308;2023-01-26T13:41:56;1.80;1.00
12557;DHT22;6344;49.932;8.308;2023-01-26T13:44:33;1.80;1.00
12557;DHT22;6344;49.932;8.308;2023-01-26T13:47:07;1.60;1.00
12557;DHT22;6344;49.932;8.308;2023-01-26T13:49:38;1.60;1.00
12557;DHT22;6344;49.932;8.308;2023-01-26T13:52:15;1.70;1.00
12557;DHT22;6344;49.932;8.308;2023-01-26T13:54:43;1.70;1.00
12557;DHT22;6344;49.932;8.308;2023-01-26T13:57:12;1.80;1.00
12557;DHT22;6344;49.932;8.308;2023-01-26T13:59:49;1.70;1.00
12557;DHT22;6344;49.932;8.308;2023-01-26T14:02:23;1.70;1.00
12557;DHT22;6344;49.932;8.308;2023-01-26T14:04:51;1.70;1.00
12557;DHT22;6344;49.932;8.308;2023-01-26T14:07:24;1.50;1.00
12557;DHT22;6344;49.932;8.308;2023-01-26T14:09:53;1.60;1.00
12557;DHT22;6344;49.932;8.308;2023-01-26T14:12:22;1.60;1.00
12557;DHT22;6344;49.932;8.308;2023-01-26T14:14:50;1.80;1.00
12557;DHT22;6344;49.932;8.308;2023-01-26T14:17:24;1.70;1.00
12557;DHT22;6344;49.932;8.308;2023-01-26T14:19:52;1.70;1.00
12557;DHT22;6344;49.932;8.308;2023-01-26T14:22:18;1.40;1.00
12557;DHT22;6344;49.932;8.308;2023-01-26T14:24:49;1.50;1.00
12557;DHT22;6344;49.932;8.308;2023-01-26T14:27:31;1.70;1.00
12557;DHT22;6344;49.932;8.308;2023-01-26T14:29:59;1.80;1.00
12557;DHT22;6344;49.932;8.308;2023-01-26T14:32:26;1.90;1.00
12557;DHT22;6344;49.932;8.308;2023-01-26T14:34:55;1.70;1.00
12557;DHT22;6344;49.932;8.308;2023-01-26T14:37:23;1.70;1.00
12557;DHT22;6344;49.932;8.308;2023-01-26T14:40:09;1.50;1.00
12557;DHT22;6344;49.932;8.308;2023-01-26T14:42:41;1.40;1.00
12557;DHT22;6344;49.932;8.308;2023-01-26T14:45:11;1.40;1.00
12557;DHT22;6344;49.932;8.308;2023-01-26T14:47:39;1.30;1.00
12557;DHT22;6344;49.932;8.308;2023-01-26T14:50:12;1.30;1.00
12557;DHT22;6344;49.932;8.308;2023-01-26T14:52:43;1.30;1.00
12557;DHT22;6344;49.932;8.308;2023-01-26T14:55:16;1.30;1.00
12557;DHT22;6344;49.932;8.308;2023-01-26T14:57:44;1.20;2.10
12557;DHT22;6344;49.932;8.308;2023-01-26T15:00:19;1.20;1.00
12557;DHT22;6344;49.932;8.308;2023-01-26T15:02:50;1.10;9.70
12557;DHT22;6344;49.932;8.308;2023-01-26T15:05:19;1.20;13.50
12557;DHT22;6344;49.932;8.308;2023-01-26T15:07:50;1.20;11.80
12557;DHT22;6344;49.932;8.308;2023-01-26T15:10:28;1.20;22.00
12557;DHT22;6344;49.932;8.308;2023-01-26T15:13:02;1.10;28.30
12557;DHT22;6344;49.932;8.308;2023-01-26T15:15:31;1.00;44.70
12557;DHT22;6344;49.932;8.308;2023-01-26T15:18:04;1.10;25.80
12557;DHT22;6344;49.932;8.308;2023-01-26T15:20:38;1.20;17.80
12557;DHT22;6344;49.932;8.308;2023-01-26T15:23:20;0.90;23.20
12557;DHT22;6344;49.932;8.308;2023-01-26T15:25:49;0.70;65.00
12557;DHT22;6344;49.932;8.308;2023-01-26T15:28:17;0.50;99.40
12557;DHT22;6344;49.932;8.308;2023-01-26T15:30:49;0.60;99.90
12557;DHT22;6344;49.932;8.308;2023-01-26T15:33:46;0.80;90.50
12557;DHT22;6344;49.932;8.308;2023-01-26T15:36:25;0.90;89.60
12557;DHT22;6344;49.932;8.308;2023-01-26T15:38:57;1.00;62.40
12557;DHT22;6344;49.932;8.308;2023-01-26T15:41:25;1.00;60.70
12557;DHT22;6344;49.932;8.308;2023-01-26T15:43:52;0.80;93.00
12557;DHT22;6344;49.932;8.308;2023-01-26T15:46:19;0.80;92.80
12557;DHT22;6344;49.932;8.308;2023-01-26T15:48:45;0.70;99.90
12557;DHT22;6344;49.932;8.308;2023-01-26T15:51:13;0.70;99.90
12557;DHT22;6344;49.932;8.308;2023-01-26T15:53:40;0.50;99.90
12557;DHT22;6344;49.932;8.308;2023-01-26T15:56:11;0.50;99.90
12557;DHT22;6344;49.932;8.308;2023-01-26T15:58:39;0.70;99.90
12557;DHT22;6344;49.932;8.308;2023-01-26T16:01:09;0.60;99.90
12557;DHT22;6344;49.932;8.308;2023-01-26T16:03:38;0.40;99.90
12557;DHT22;6344;49.932;8.308;2023-01-26T16:06:05;0.30;99.90
12557;DHT22;6344;49.932;8.308;2023-01-26T16:08:31;0.50;99.90
12557;DHT22;6344;49.932;8.308;2023-01-26T16:10:58;0.50;99.90
12557;DHT22;6344;49.932;8.308;2023-01-26T16:13:25;0.50;99.90
12557;DHT22;6344;49.932;8.308;2023-01-26T16:15:53;0.40;99.90
12557;DHT22;6344;49.932;8.308;2023-01-26T16:18:20;0.40;99.90
12557;DHT22;6344;49.932;8.308;2023-01-26T16:20:48;0.40;99.90
12557;DHT22;6344;49.932;8.308;2023-01-26T16:23:17;0.50;99.90
12557;DHT22;6344;49.932;8.308;2023-01-26T16:25:44;0.60;99.90